Terminal Aerodrome Forecast
Issued by NWS Wilmington, OH

Current Version | Previous Version | Text Only | Print | Product List | Glossary Off
Versions: 1 2 3 4 5 6 7 8 9 10 11 12 13 14 15 16 17 18 19 20 21 22 23 24

739
FTUS41 KILN 240935 AAA
TAFCMH
TAF AMD
KCMH 240935Z 2410/2506 10012KT P6SM -SHRA OVC050
     FM241200 11010KT 5SM -SHRA OVC040
     FM241800 10014KT 5SM -SHRA BR OVC025
     FM242200 09007KT 5SM BR OVC015=

USA.gov is the U.S. government's official web portal to all federal, state and local government web resources and services.